createdAt,value
2019-02-23T00:01:30.638Z,10.27
2019-02-23T00:03:59.254Z,7.40
2019-02-23T00:06:30.023Z,6.70
2019-02-23T00:08:57.737Z,7.53
2019-02-23T00:11:26.768Z,7.97
2019-02-23T00:13:54.839Z,6.23
2019-02-23T00:16:23.259Z,7.97
2019-02-23T00:18:51.877Z,8.77
2019-02-23T00:21:21.402Z,6.87
2019-02-23T00:23:49.706Z,6.63
2019-02-23T00:26:18.079Z,6.63
2019-02-23T00:28:46.571Z,7.87
2019-02-23T00:31:14.784Z,6.83
2019-02-23T00:33:43.032Z,8.73
2019-02-23T00:36:11.336Z,7.47
2019-02-23T00:38:39.577Z,6.70
2019-02-23T00:41:08.154Z,8.77
2019-02-23T00:43:36.470Z,7.20
2019-02-23T00:46:04.592Z,6.63
2019-02-23T00:48:32.868Z,7.23
2019-02-23T00:51:00.939Z,11.93
2019-02-23T00:53:29.061Z,9.30
2019-02-23T00:55:57.239Z,12.00
2019-02-23T00:58:25.407Z,7.43
2019-02-23T01:00:53.613Z,12.50
2019-02-23T01:03:21.858Z,8.40
2019-02-23T01:05:49.942Z,8.63
2019-02-23T01:08:18.158Z,7.17
2019-02-23T01:10:57.780Z,7.23
2019-02-23T01:13:19.436Z,8.70
2019-02-23T01:15:47.545Z,9.60
2019-02-23T01:18:15.895Z,6.70
2019-02-23T01:20:44.132Z,6.60
2019-02-23T01:23:12.269Z,8.60
2019-02-23T01:25:40.502Z,8.90
2019-02-23T01:28:08.677Z,7.00
2019-02-23T01:30:37.014Z,7.50
2019-02-23T01:33:05.259Z,9.40
2019-02-23T01:35:34.422Z,7.77
2019-02-23T01:38:02.779Z,8.20
2019-02-23T01:40:30.954Z,9.13
2019-02-23T01:42:59.474Z,7.63
2019-02-23T01:45:27.575Z,7.77
2019-02-23T01:47:55.777Z,8.87
2019-02-23T01:50:24.470Z,9.70
2019-02-23T01:52:52.671Z,7.10
2019-02-23T01:55:20.738Z,9.00
2019-02-23T01:57:49.272Z,7.67
2019-02-23T02:00:17.598Z,9.70
2019-02-23T02:02:47.724Z,15.30
2019-02-23T02:05:15.912Z,7.90
2019-02-23T02:07:43.989Z,10.63
2019-02-23T02:10:13.418Z,11.70
2019-02-23T02:12:41.721Z,6.53
2019-02-23T02:15:12.385Z,10.53
2019-02-23T02:17:40.912Z,8.73
2019-02-23T02:20:11.316Z,10.10
2019-02-23T02:22:39.568Z,9.90
2019-02-23T02:25:08.708Z,8.60
2019-02-23T02:27:36.842Z,12.50
2019-02-23T02:30:05.817Z,9.23
2019-02-23T02:32:34.065Z,9.63
2019-02-23T02:35:02.400Z,8.77
2019-02-23T02:37:31.618Z,9.17
2019-02-23T02:39:59.742Z,10.80
2019-02-23T02:42:27.817Z,9.87
2019-02-23T02:44:55.987Z,9.97
2019-02-23T02:47:24.203Z,10.60
2019-02-23T02:49:52.560Z,9.43
2019-02-23T02:52:20.770Z,14.23
2019-02-23T02:54:48.823Z,9.60
2019-02-23T02:57:17.154Z,9.17
2019-02-23T02:59:45.211Z,7.93
2019-02-23T03:02:13.307Z,9.20
2019-02-23T03:04:41.460Z,8.63
2019-02-23T03:07:09.711Z,10.63
2019-02-23T03:09:38.897Z,7.27
2019-02-23T03:12:07.124Z,10.43
2019-02-23T03:14:35.345Z,8.67
2019-02-23T03:17:03.397Z,10.03
2019-02-23T03:19:31.741Z,8.83
2019-02-23T03:21:59.924Z,9.47
2019-02-23T03:24:28.029Z,10.47
2019-02-23T03:26:56.108Z,9.50
2019-02-23T03:29:24.227Z,9.27
2019-02-23T03:31:52.391Z,9.90
2019-02-23T03:34:20.521Z,9.63
2019-02-23T03:36:48.735Z,8.47
2019-02-23T03:39:16.782Z,8.50
2019-02-23T03:41:45.345Z,9.70
2019-02-23T03:44:13.522Z,11.67
2019-02-23T03:46:41.647Z,10.87
2019-02-23T03:49:09.791Z,8.80
2019-02-23T03:51:38.020Z,10.07
2019-02-23T03:54:06.587Z,9.83
2019-02-23T03:56:34.703Z,8.83
2019-02-23T03:59:02.918Z,12.00
2019-02-23T04:01:31.103Z,12.90
2019-02-23T04:03:59.139Z,8.07
2019-02-23T04:06:27.495Z,11.37
2019-02-23T04:08:55.602Z,8.60
2019-02-23T04:11:23.981Z,8.93
2019-02-23T04:13:52.101Z,10.33
2019-02-23T04:16:20.159Z,7.83
2019-02-23T04:18:48.536Z,12.30
2019-02-23T04:21:16.691Z,8.90
2019-02-23T04:23:44.893Z,8.40
2019-02-23T04:26:14.080Z,9.27
2019-02-23T04:28:42.131Z,9.90
2019-02-23T04:31:10.346Z,9.60
2019-02-23T04:33:38.473Z,10.83
2019-02-23T04:36:07.596Z,10.80
2019-02-23T04:38:35.659Z,13.23
2019-02-23T04:41:03.827Z,11.37
2019-02-23T04:43:31.897Z,9.43
2019-02-23T04:46:00.143Z,9.07
2019-02-23T04:48:28.143Z,10.07
2019-02-23T04:50:56.289Z,9.67
2019-02-23T04:53:24.404Z,10.83
2019-02-23T04:55:52.473Z,10.03
2019-02-23T04:58:20.885Z,9.97
2019-02-23T05:00:49.019Z,9.07
2019-02-23T05:03:17.165Z,12.70
2019-02-23T05:05:45.308Z,11.30
2019-02-23T05:08:13.479Z,9.53
2019-02-23T05:10:41.584Z,11.53
2019-02-23T05:13:09.798Z,10.43
2019-02-23T05:15:37.827Z,10.17
2019-02-23T05:18:05.997Z,10.67
2019-02-23T05:20:34.190Z,9.80
2019-02-23T05:23:02.499Z,11.43
2019-02-23T05:25:30.571Z,9.20
2019-02-23T05:27:58.689Z,7.83
2019-02-23T05:30:27.027Z,11.90
2019-02-23T05:32:55.086Z,9.27
2019-02-23T05:35:23.319Z,8.97
2019-02-23T05:37:51.375Z,12.13
2019-02-23T05:40:20.358Z,10.37
2019-02-23T05:43:00.094Z,11.03
2019-02-23T05:45:22.338Z,8.37
2019-02-23T05:47:50.485Z,9.97
2019-02-23T05:50:18.594Z,10.67
2019-02-23T05:52:47.279Z,10.93
2019-02-23T05:55:16.389Z,10.20
2019-02-23T05:57:44.422Z,12.07
2019-02-23T06:00:13.587Z,11.20
2019-02-23T06:02:44.792Z,10.50
2019-02-23T06:05:11.746Z,11.00
2019-02-23T06:07:39.954Z,9.77
2019-02-23T06:10:09.427Z,9.27
2019-02-23T06:12:37.679Z,10.27
2019-02-23T06:15:09.502Z,11.47
2019-02-23T06:17:37.577Z,12.83
2019-02-23T06:20:09.177Z,9.10
2019-02-23T06:22:37.188Z,12.07
2019-02-23T06:25:06.510Z,11.73
2019-02-23T06:27:34.613Z,11.27
2019-02-23T06:30:02.988Z,9.87
2019-02-23T06:32:31.158Z,9.20
2019-02-23T06:34:59.224Z,11.23
2019-02-23T06:37:27.414Z,8.60
2019-02-23T06:39:55.564Z,10.10
2019-02-23T06:42:23.886Z,10.97
2019-02-23T06:44:52.166Z,12.63
2019-02-23T06:47:20.215Z,10.70
2019-02-23T06:49:48.389Z,11.13
2019-02-23T06:52:16.538Z,10.67
2019-02-23T06:54:44.761Z,12.03
2019-02-23T06:57:12.859Z,11.03
2019-02-23T06:59:41.218Z,11.40
2019-02-23T07:02:09.264Z,12.63
2019-02-23T07:04:37.548Z,11.77
2019-02-23T07:07:05.650Z,10.23
2019-02-23T07:09:33.700Z,12.40
2019-02-23T07:12:01.801Z,11.37
2019-02-23T07:14:29.960Z,14.10
2019-02-23T07:16:58.080Z,14.13
2019-02-23T07:19:26.252Z,13.37
2019-02-23T07:21:54.320Z,10.13
2019-02-23T07:24:22.627Z,15.73
2019-02-23T07:26:50.695Z,13.27
2019-02-23T07:29:18.846Z,14.40
2019-02-23T07:31:46.921Z,17.80
2019-02-23T07:34:15.024Z,14.87
2019-02-23T07:36:43.119Z,15.23
2019-02-23T07:39:11.438Z,13.37
2019-02-23T07:41:39.529Z,14.77
2019-02-23T07:44:07.635Z,14.63
2019-02-23T07:46:35.742Z,13.43
2019-02-23T07:49:03.787Z,14.47
2019-02-23T07:51:32.974Z,16.80
2019-02-23T07:54:01.055Z,12.40
2019-02-23T07:56:29.243Z,15.70
2019-02-23T07:58:57.418Z,16.07
2019-02-23T08:01:28.018Z,14.23
2019-02-23T08:03:56.267Z,15.33
2019-02-23T08:06:24.609Z,14.50
2019-02-23T08:08:52.664Z,13.93
2019-02-23T08:11:20.825Z,16.63
2019-02-23T08:13:48.846Z,15.77
2019-02-23T08:16:17.037Z,15.53
2019-02-23T08:18:45.184Z,14.93
2019-02-23T08:21:13.426Z,16.47
2019-02-23T08:23:41.493Z,14.30
2019-02-23T08:26:09.577Z,14.93
2019-02-23T08:28:37.774Z,13.43
2019-02-23T08:31:05.858Z,14.20
2019-02-23T08:33:34.103Z,12.53
2019-02-23T08:36:02.326Z,15.87
2019-02-23T08:38:30.347Z,13.90
2019-02-23T08:40:59.431Z,15.20
2019-02-23T08:43:27.536Z,12.90
2019-02-23T08:45:55.649Z,16.43
2019-02-23T08:48:23.799Z,11.67
2019-02-23T08:50:51.836Z,12.47
2019-02-23T08:53:19.861Z,13.03
2019-02-23T08:55:47.897Z,12.93
2019-02-23T08:58:16.024Z,13.17
2019-02-23T09:00:44.118Z,13.63
2019-02-23T09:03:12.398Z,14.77
2019-02-23T09:05:40.662Z,11.33
2019-02-23T09:08:08.859Z,10.77
2019-02-23T09:10:37.060Z,11.47
2019-02-23T09:13:05.219Z,12.07
2019-02-23T09:15:33.334Z,11.70
2019-02-23T09:18:01.431Z,11.30
2019-02-23T09:20:30.581Z,10.73
2019-02-23T09:23:00.470Z,12.10
2019-02-23T09:25:28.572Z,11.33
2019-02-23T09:27:56.674Z,9.20
2019-02-23T09:30:24.776Z,10.77
2019-02-23T09:32:52.845Z,13.00
2019-02-23T09:35:20.951Z,13.73
2019-02-23T09:37:49.054Z,12.17
2019-02-23T09:40:17.192Z,10.23
2019-02-23T09:42:45.313Z,11.40
2019-02-23T09:45:13.912Z,14.03
2019-02-23T09:47:41.929Z,11.03
2019-02-23T09:50:10.290Z,10.87
2019-02-23T09:52:38.489Z,9.00
2019-02-23T09:55:06.893Z,11.63
2019-02-23T09:57:35.173Z,12.40
2019-02-23T10:00:03.943Z,10.40
2019-02-23T10:02:33.167Z,11.73
2019-02-23T10:05:01.335Z,11.20
2019-02-23T10:07:29.465Z,12.70
2019-02-23T10:09:57.571Z,12.47
2019-02-23T10:12:25.781Z,11.27
2019-02-23T10:14:53.878Z,13.80
2019-02-23T10:17:22.021Z,13.70
2019-02-23T10:19:52.723Z,9.63
2019-02-23T10:22:20.829Z,11.57
2019-02-23T10:24:49.482Z,10.40
2019-02-23T10:27:17.650Z,10.90
2019-02-23T10:29:45.755Z,12.20
2019-02-23T10:32:13.962Z,11.53
2019-02-23T10:34:42.655Z,10.43
2019-02-23T10:37:11.092Z,10.63
2019-02-23T10:39:39.536Z,10.20
2019-02-23T10:42:08.058Z,11.70
2019-02-23T10:44:36.378Z,11.80
2019-02-23T10:47:04.751Z,12.50
2019-02-23T10:49:33.540Z,13.03
2019-02-23T10:52:02.068Z,11.17
2019-02-23T10:54:33.799Z,10.50
2019-02-23T10:57:02.434Z,11.47
2019-02-23T10:59:30.811Z,10.80
2019-02-23T11:01:59.964Z,11.30
2019-02-23T11:04:28.198Z,11.70
2019-02-23T11:06:56.562Z,9.73
2019-02-23T11:09:31.656Z,12.10
2019-02-23T11:12:00.274Z,14.60
2019-02-23T11:14:29.005Z,9.53
2019-02-23T11:16:57.633Z,12.27
2019-02-23T11:19:26.169Z,10.83
2019-02-23T11:21:54.499Z,10.93
2019-02-23T11:24:22.829Z,9.53
2019-02-23T11:26:51.383Z,14.60
2019-02-23T11:29:20.511Z,10.87
2019-02-23T11:31:51.489Z,14.50
2019-02-23T11:34:23.263Z,11.23
2019-02-23T11:36:51.640Z,11.00
2019-02-23T11:39:20.204Z,10.73
2019-02-23T11:41:48.946Z,10.50
2019-02-23T11:44:17.391Z,9.90
2019-02-23T11:46:59.775Z,12.33
2019-02-23T11:49:35.533Z,14.73
2019-02-23T11:52:03.915Z,11.27
2019-02-23T11:54:32.265Z,10.00
2019-02-23T11:57:01.119Z,9.53
2019-02-23T11:59:30.111Z,10.13
2019-02-23T12:01:58.802Z,9.33
2019-02-23T12:04:27.300Z,10.03
2019-02-23T12:06:55.659Z,10.73
2019-02-23T12:09:23.910Z,10.30
2019-02-23T12:11:52.353Z,10.80
2019-02-23T12:14:20.904Z,11.60
2019-02-23T12:16:49.425Z,14.10
2019-02-23T12:19:18.907Z,11.97
2019-02-23T12:21:48.166Z,9.93
2019-02-23T12:24:16.585Z,10.87
2019-02-23T12:26:44.847Z,10.30
2019-02-23T12:29:13.267Z,15.63
2019-02-23T12:31:41.375Z,10.63
2019-02-23T12:34:12.406Z,10.67
2019-02-23T12:36:40.832Z,10.40
2019-02-23T12:39:09.193Z,12.23
2019-02-23T12:41:39.195Z,10.93
2019-02-23T12:44:08.627Z,10.60
2019-02-23T12:46:38.096Z,9.20
2019-02-23T12:49:06.412Z,8.00
2019-02-23T12:51:34.465Z,13.03
2019-02-23T12:54:02.650Z,12.40
2019-02-23T12:56:32.048Z,9.47
2019-02-23T12:59:00.143Z,10.57
2019-02-23T13:01:28.337Z,9.73
2019-02-23T13:03:56.548Z,11.07
2019-02-23T13:06:24.645Z,9.60
2019-02-23T13:09:19.346Z,12.70
2019-02-23T13:12:42.564Z,8.83
2019-02-23T13:15:27.826Z,8.73
2019-02-23T13:18:33.376Z,11.60
2019-02-23T13:21:45.503Z,11.17
2019-02-23T13:24:55.695Z,12.40
2019-02-23T13:28:09.447Z,9.27
2019-02-23T13:31:32.753Z,9.70
2019-02-23T13:34:57.975Z,10.37
2019-02-23T13:38:12.009Z,10.93
2019-02-23T13:41:30.689Z,10.70
2019-02-23T13:44:29.875Z,10.80
2019-02-23T13:47:51.779Z,9.77
2019-02-23T13:50:53.190Z,9.53
2019-02-23T13:54:06.366Z,12.00
2019-02-23T13:57:02.216Z,12.20
2019-02-23T14:00:28.618Z,11.13
2019-02-23T14:03:55.571Z,16.90
2019-02-23T14:07:20.396Z,13.07
2019-02-23T14:10:49.225Z,10.20
2019-02-23T14:14:33.246Z,10.07
2019-02-23T14:17:48.928Z,12.47
2019-02-23T14:21:11.046Z,10.43
2019-02-23T14:24:29.644Z,11.53
2019-02-23T14:27:39.708Z,13.90
2019-02-23T14:30:44.161Z,9.70
2019-02-23T14:34:26.755Z,11.37
2019-02-23T14:37:45.426Z,10.57
2019-02-23T14:41:18.144Z,10.00
2019-02-23T14:44:47.147Z,13.57
2019-02-23T14:48:36.075Z,11.67
2019-02-23T14:52:13.754Z,12.67
2019-02-23T14:55:03.858Z,12.63
2019-02-23T14:58:37.366Z,13.50
2019-02-23T15:01:53.039Z,12.70
2019-02-23T15:05:33.041Z,13.47
2019-02-23T15:08:30.120Z,11.70
2019-02-23T15:11:47.434Z,12.37
2019-02-23T15:15:15.895Z,16.00
2019-02-23T15:18:18.268Z,12.13
2019-02-23T15:21:43.552Z,12.50
2019-02-23T15:25:00.466Z,11.57
2019-02-23T15:28:26.751Z,11.73
2019-02-23T15:31:18.906Z,11.07
2019-02-23T15:34:43.453Z,12.77
2019-02-23T15:37:49.428Z,13.30
2019-02-23T15:41:21.585Z,15.47
2019-02-23T15:44:35.033Z,12.07
2019-02-23T15:47:52.354Z,11.70
2019-02-23T15:50:20.706Z,13.33
2019-02-23T15:52:49.009Z,12.80
2019-02-23T15:55:25.599Z,13.00
2019-02-23T15:57:47.202Z,17.27
2019-02-23T16:00:15.599Z,11.73
2019-02-23T16:02:44.793Z,13.07
2019-02-23T16:05:13.127Z,12.13
2019-02-23T16:07:41.209Z,17.37
2019-02-23T16:10:09.357Z,14.47
2019-02-23T16:12:37.590Z,11.63
2019-02-23T16:15:06.097Z,12.83
2019-02-23T16:17:34.277Z,12.83
2019-02-23T16:20:02.352Z,12.40
2019-02-23T16:22:30.913Z,12.20
2019-02-23T16:24:59.058Z,16.30
2019-02-23T16:27:27.171Z,13.20
2019-02-23T16:29:55.250Z,15.20
2019-02-23T16:32:23.361Z,12.10
2019-02-23T16:34:51.457Z,10.80
2019-02-23T16:37:19.688Z,12.47
2019-02-23T16:39:47.964Z,12.03
2019-02-23T16:42:16.091Z,10.77
2019-02-23T16:44:44.326Z,13.00
2019-02-23T16:47:12.490Z,14.93
2019-02-23T16:49:40.789Z,13.83
2019-02-23T16:52:09.384Z,14.10
2019-02-23T16:54:37.613Z,14.53
2019-02-23T16:57:05.758Z,12.57
2019-02-23T16:59:34.016Z,13.77
2019-02-23T17:02:03.096Z,14.70
2019-02-23T17:04:31.524Z,11.90
2019-02-23T17:06:59.722Z,14.33
2019-02-23T17:09:29.989Z,11.53
2019-02-23T17:11:58.092Z,13.80
2019-02-23T17:14:26.170Z,14.53
2019-02-23T17:16:54.345Z,11.80
2019-02-23T17:19:22.442Z,13.30
2019-02-23T17:21:50.568Z,13.53
2019-02-23T17:24:18.662Z,13.50
2019-02-23T17:26:46.782Z,15.77
2019-02-23T17:29:14.871Z,16.37
2019-02-23T17:31:42.937Z,12.87
2019-02-23T17:34:11.190Z,15.33
2019-02-23T17:36:39.300Z,10.90
2019-02-23T17:39:08.791Z,13.87
2019-02-23T17:41:37.421Z,12.73
2019-02-23T17:44:05.699Z,12.27
2019-02-23T17:46:33.936Z,15.20
2019-02-23T17:49:02.370Z,13.77
2019-02-23T17:51:30.384Z,17.60
2019-02-23T17:53:58.627Z,17.17
2019-02-23T17:56:26.839Z,14.43
2019-02-23T17:58:55.208Z,14.63
2019-02-23T18:01:25.462Z,14.73
2019-02-23T18:03:54.989Z,15.53
2019-02-23T18:06:23.181Z,15.57
2019-02-23T18:08:51.436Z,14.97
2019-02-23T18:11:19.498Z,14.00
2019-02-23T18:13:47.596Z,20.07
2019-02-23T18:16:15.793Z,12.73
2019-02-23T18:18:44.064Z,14.27
2019-02-23T18:21:12.131Z,14.50
2019-02-23T18:23:40.210Z,13.23
2019-02-23T18:26:08.433Z,12.03
2019-02-23T18:28:37.130Z,11.67
2019-02-23T18:31:05.240Z,11.77
2019-02-23T18:33:33.424Z,17.93
2019-02-23T18:36:01.624Z,12.17
2019-02-23T18:38:29.918Z,14.40
2019-02-23T18:40:58.154Z,13.60
2019-02-23T18:43:26.483Z,12.73
2019-02-23T18:45:54.554Z,10.60
2019-02-23T18:48:22.717Z,12.67
2019-02-23T18:50:50.838Z,13.27
2019-02-23T18:53:19.002Z,13.27
2019-02-23T18:55:47.275Z,14.17
2019-02-23T18:58:17.946Z,13.50
2019-02-23T19:00:46.123Z,13.37
2019-02-23T19:03:14.301Z,14.63
2019-02-23T19:05:49.720Z,14.00
2019-02-23T19:08:13.167Z,13.37
2019-02-23T19:10:41.706Z,11.20
2019-02-23T19:13:10.138Z,12.30
2019-02-23T19:15:38.514Z,13.17
2019-02-23T19:18:06.744Z,13.97
2019-02-23T19:20:35.105Z,13.53
2019-02-23T19:23:03.261Z,11.13
2019-02-23T19:25:31.467Z,14.40
2019-02-23T19:27:59.572Z,14.13
2019-02-23T19:30:27.824Z,13.50
2019-02-23T19:32:56.024Z,14.63
2019-02-23T19:35:24.277Z,13.47
2019-02-23T19:37:52.734Z,12.37
2019-02-23T19:40:20.957Z,17.13
2019-02-23T19:42:49.111Z,14.57
2019-02-23T19:45:17.322Z,14.93
2019-02-23T19:47:45.606Z,13.13
2019-02-23T19:50:37.302Z,15.17
2019-02-23T19:53:05.679Z,15.03
2019-02-23T19:55:33.968Z,15.07
2019-02-23T19:58:02.104Z,13.80
2019-02-23T20:00:30.280Z,16.30
2019-02-23T20:02:58.440Z,16.33
2019-02-23T20:05:26.685Z,13.03
2019-02-23T20:07:54.846Z,12.27
2019-02-23T20:10:23.105Z,13.87
2019-02-23T20:12:51.344Z,12.90
2019-02-23T20:15:19.492Z,13.37
2019-02-23T20:17:47.524Z,14.53
2019-02-23T20:20:15.633Z,13.30
2019-02-23T20:22:43.837Z,12.13
2019-02-23T20:25:12.076Z,11.93
2019-02-23T20:27:40.400Z,11.73
2019-02-23T20:30:08.776Z,13.17
2019-02-23T20:32:38.357Z,12.27
2019-02-23T20:35:06.918Z,16.27
2019-02-23T20:37:35.133Z,14.00
2019-02-23T20:40:03.569Z,14.57
2019-02-23T20:42:32.366Z,15.97
2019-02-23T20:45:00.454Z,18.53
2019-02-23T20:47:28.719Z,15.17
2019-02-23T20:49:56.901Z,20.47
2019-02-23T20:52:25.012Z,15.53
2019-02-23T20:54:53.177Z,14.37
2019-02-23T20:57:21.226Z,12.80
2019-02-23T20:59:49.374Z,14.33
2019-02-23T21:02:17.531Z,13.73
2019-02-23T21:04:45.789Z,13.63
2019-02-23T21:07:14.023Z,14.83
2019-02-23T21:09:42.317Z,15.57
2019-02-23T21:12:10.394Z,12.80
2019-02-23T21:14:39.744Z,13.90
2019-02-23T21:17:08.090Z,12.27
2019-02-23T21:19:36.290Z,12.57
2019-02-23T21:22:04.495Z,11.97
2019-02-23T21:24:33.836Z,15.47
2019-02-23T21:27:01.944Z,12.10
2019-02-23T21:29:30.780Z,13.63
2019-02-23T21:31:59.720Z,13.33
2019-02-23T21:34:28.481Z,10.80
2019-02-23T21:36:57.301Z,11.93
2019-02-23T21:39:26.186Z,13.97
2019-02-23T21:41:54.984Z,13.00
2019-02-23T21:44:23.895Z,12.90
2019-02-23T21:46:52.706Z,12.53
2019-02-23T21:49:23.960Z,15.17
2019-02-23T21:51:52.849Z,13.37
2019-02-23T21:54:21.721Z,14.87
2019-02-23T21:56:50.537Z,14.23
2019-02-23T21:59:19.425Z,14.67
2019-02-23T22:01:49.046Z,16.03
2019-02-23T22:04:19.395Z,18.00
2019-02-23T22:06:48.236Z,17.43
2019-02-23T22:09:17.120Z,14.03
2019-02-23T22:11:46.042Z,15.27
2019-02-23T22:14:15.203Z,16.70
2019-02-23T22:16:44.185Z,16.53
2019-02-23T22:19:17.730Z,15.90
2019-02-23T22:21:46.184Z,17.23
2019-02-23T22:24:15.280Z,17.07
2019-02-23T22:26:43.470Z,17.53
2019-02-23T22:29:12.014Z,15.87
2019-02-23T22:31:40.756Z,18.60
2019-02-23T22:34:09.682Z,16.70
2019-02-23T22:36:38.265Z,15.50
2019-02-23T22:39:11.082Z,16.53
2019-02-23T22:41:49.161Z,16.60
2019-02-23T22:44:13.811Z,17.47
2019-02-23T22:46:42.818Z,14.60
2019-02-23T22:49:12.102Z,16.80
2019-02-23T22:51:40.656Z,16.20
2019-02-23T22:54:15.112Z,15.47
2019-02-23T22:56:44.237Z,18.30
2019-02-23T22:59:12.929Z,23.07
2019-02-23T23:01:48.447Z,17.73
2019-02-23T23:04:17.540Z,14.77
2019-02-23T23:06:53.443Z,18.30
2019-02-23T23:09:24.573Z,17.47
2019-02-23T23:12:03.458Z,19.00
2019-02-23T23:14:33.709Z,20.80
2019-02-23T23:17:05.094Z,18.57
2019-02-23T23:19:39.263Z,19.53
2019-02-23T23:22:08.363Z,18.30
2019-02-23T23:24:37.030Z,20.13
2019-02-23T23:27:09.889Z,20.33
2019-02-23T23:29:39.903Z,18.30
2019-02-23T23:32:10.272Z,22.13
2019-02-23T23:34:42.361Z,19.97
2019-02-23T23:37:11.230Z,20.10
2019-02-23T23:39:41.439Z,17.40
2019-02-23T23:42:17.481Z,20.30
2019-02-23T23:44:51.214Z,19.07
2019-02-23T23:47:27.948Z,19.67
2019-02-23T23:49:59.347Z,19.23
2019-02-23T23:52:30.546Z,20.20
2019-02-23T23:54:59.485Z,20.10
2019-02-23T23:57:32.459Z,20.23
